CheckWX is a tool to help pilots better visualize weather data.  It is not intended as a substitute for an official pre-flight weather briefing.

21:15:35 UTC

EGLL TAF
London Heathrow Airport Airport
London, United Kingdom
TAF EGLL 091704Z 0918/1024 23010KT 9999 -RADZ BKN016 BECMG 0918/0921 36007KT 8000 BKN012 TEMPO 0918/1007 3000 RADZ BKN006 PROB40 TEMPO 0921/1005 BKN004 BECMG 1006/1009 30010KT 9999 NSW FEW025 PROB30 TEMPO 1010/1018 8000 SHRA

Jul-9@
18:00 UTC

Jul-9 @ 18:00 UTC

Jul-11@
00:00 UTC

Jul-11 @ 00:00 UTC

TAF EGLL 091704Z 0918/1024 23010KT 9999 -RADZ BKN016
Wind
  • 230° at 10 KTS
Conditions
Light Rain, Light Drizzle
Cloud Levels
  • Broken at 1,600' AGL

Jul-9@
18:00 UTC

Jul-9 @ 18:00 UTC

Jul-10@
06:00 UTC

Jul-10 @ 06:00 UTC

BECMG 0918/0921 36007KT 8000 BKN012

Expired

Wind
  • 360° at 7 KTS
Conditions
Light Rain, Light Drizzle
Cloud Levels
  • Broken at 1,200' AGL

Jul-9@
18:00 UTC

Jul-9 @ 18:00 UTC

Jul-10@
07:00 UTC

Jul-10 @ 07:00 UTC

TEMPO 0918/1007 3000 RADZ BKN006

Expired

Conditions
Rain, Drizzle
Cloud Levels
  • Broken at 600' AGL

Jul-9@
21:00 UTC

Jul-9 @ 21:00 UTC

Jul-10@
05:00 UTC

Jul-10 @ 05:00 UTC

PROB40 TEMPO 0921/1005 BKN004

Expired

Cloud Levels
  • Broken at 400' AGL

Jul-10@
06:00 UTC

Jul-10 @ 06:00 UTC

Jul-11@
00:00 UTC

Jul-11 @ 00:00 UTC

BECMG 1006/1009 30010KT 9999 NSW FEW025

Becoming

Becoming Conditions expected by Fri, Jul 10, 2020 @ 09:00 UTC

Wind
  • 300° at 10 KTS
Conditions
No significant weather
Cloud Levels
  • Few at 2,500' AGL

Jul-10@
10:00 UTC

Jul-10 @ 10:00 UTC

Jul-10@
18:00 UTC

Jul-10 @ 18:00 UTC

PROB30 TEMPO 1010/1018 8000 SHRA

Expired

Conditions
Showers, Rain
Cloud Levels